Time;durP1;ratioP1;P1;durP2;ratioP2;P2;SDS_P1;SDS_P2;PMS_P1;PMS_P2;Temp;Humidity;BMP_temperature;BMP_pressure;BME280_temperature;BME280_humidity;BME280_pressure;Samples;Min_cycle;Max_cycle;Signal;HPM_P1;HPM_P2
2021/09/18 00:01:32;;;;;;;13.23;5.13;;;;;;;;;;5033772;28;20441;-61
2021/09/18 00:03:59;;;;;;;5.10;3.77;;;;;;;;;;5033635;28;20477;-61
2021/09/18 00:06:26;;;;;;;4.43;2.93;;;;;;;;;;5033623;28;20457;-61
2021/09/18 00:08:53;;;;;;;3.90;2.63;;;;;;;;;;5033446;28;20465;-62
2021/09/18 00:11:21;;;;;;;3.83;2.60;;;;;;;;;;5033305;28;20450;-61
2021/09/18 00:13:48;;;;;;;2.80;2.50;;;;;;;;;;5032989;28;21056;-61
2021/09/18 00:16:15;;;;;;;3.13;2.07;;;;;;;;;;5033423;28;20450;-62
2021/09/18 00:18:44;;;;;;;2.50;1.80;;;;;;;;;;5033494;28;20470;-62
2021/09/18 00:21:12;;;;;;;4.60;2.83;;;;;;;;;;5033458;28;20449;-62
2021/09/18 00:23:39;;;;;;;3.50;1.77;;;;;;;;;;5034747;28;20853;-62
2021/09/18 00:26:06;;;;;;;2.27;1.83;;;;;;;;;;5037713;28;20453;-61
2021/09/18 00:28:33;;;;;;;2.63;2.17;;;;;;;;;;5038612;28;20464;-62
2021/09/18 00:31:01;;;;;;;3.40;2.40;;;;;;;;;;5039352;28;20770;-63
2021/09/18 00:33:28;;;;;;;7.33;2.17;;;;;;;;;;5038713;28;20842;-61
2021/09/18 00:35:56;;;;;;;2.63;2.10;;;;;;;;;;5038844;28;20496;-61
2021/09/18 00:38:24;;;;;;;2.90;2.10;;;;;;;;;;5038034;28;20472;-61
2021/09/18 00:40:51;;;;;;;2.30;2.10;;;;;;;;;;5037322;28;20437;-61
2021/09/18 00:43:18;;;;;;;2.57;2.20;;;;;;;;;;5037054;28;20453;-61
2021/09/18 00:45:45;;;;;;;3.60;2.13;;;;;;;;;;5036911;28;20508;-62
2021/09/18 00:48:13;;;;;;;4.30;2.17;;;;;;;;;;5036572;28;20525;-61
2021/09/18 00:50:40;;;;;;;2.73;2.20;;;;;;;;;;5036849;28;20458;-62
2021/09/18 00:53:10;;;;;;;5.13;2.50;;;;;;;;;;5036707;28;20475;-61
2021/09/18 00:55:37;;;;;;;2.10;1.90;;;;;;;;;;5036763;28;20508;-61
2021/09/18 00:58:04;;;;;;;2.50;2.30;;;;;;;;;;5036422;28;20532;-61
2021/09/18 01:00:32;;;;;;;2.20;2.00;;;;;;;;;;5036736;28;20505;-61
2021/09/18 01:03:00;;;;;;;3.73;2.50;;;;;;;;;;5036917;28;20451;-62
2021/09/18 01:05:30;;;;;;;3.73;2.30;;;;;;;;;;5036277;28;20503;-61
2021/09/18 01:07:58;;;;;;;2.90;2.47;;;;;;;;;;5036578;28;20472;-61
2021/09/18 01:10:27;;;;;;;2.30;2.03;;;;;;;;;;5036890;28;20501;-61
2021/09/18 01:13:01;;;;;;;3.70;2.43;;;;;;;;;;5036300;28;20505;-61
2021/09/18 01:15:29;;;;;;;5.30;2.50;;;;;;;;;;5036063;28;20449;-61
2021/09/18 01:17:58;;;;;;;3.43;2.33;;;;;;;;;;5036028;28;20823;-62
2021/09/18 01:20:25;;;;;;;6.07;2.63;;;;;;;;;;5036021;28;20546;-61
2021/09/18 01:22:53;;;;;;;2.70;2.27;;;;;;;;;;5035887;28;20453;-61
2021/09/18 01:25:21;;;;;;;3.20;2.67;;;;;;;;;;5036140;28;20445;-61
2021/09/18 01:27:49;;;;;;;3.40;2.80;;;;;;;;;;5035724;28;20526;-61
2021/09/18 01:30:20;;;;;;;3.77;2.83;;;;;;;;;;5035751;28;20444;-61
2021/09/18 01:32:47;;;;;;;2.93;2.63;;;;;;;;;;5036214;28;20454;-61
2021/09/18 01:35:15;;;;;;;3.00;2.70;;;;;;;;;;5035220;28;20565;-62
2021/09/18 01:37:42;;;;;;;3.93;2.73;;;;;;;;;;5035744;28;20884;-62
2021/09/18 01:40:10;;;;;;;5.77;2.70;;;;;;;;;;5035740;28;20506;-62
2021/09/18 01:42:43;;;;;;;3.57;3.27;;;;;;;;;;5036652;28;20449;-62
2021/09/18 01:45:11;;;;;;;4.50;2.87;;;;;;;;;;5035924;28;20498;-62
2021/09/18 01:47:45;;;;;;;3.40;3.10;;;;;;;;;;5036480;28;20578;-62
2021/09/18 01:50:26;;;;;;;5.03;3.17;;;;;;;;;;5035822;28;20470;-62
2021/09/18 01:52:53;;;;;;;5.63;3.40;;;;;;;;;;5036519;28;20432;-62
2021/09/18 01:55:21;;;;;;;7.18;4.50;;;;;;;;;;5035511;28;20888;-62
2021/09/18 01:57:51;;;;;;;5.90;4.00;;;;;;;;;;5035366;28;20241;-62
2021/09/18 02:00:19;;;;;;;11.13;4.10;;;;;;;;;;5035225;28;20529;-61
2021/09/18 02:02:47;;;;;;;7.40;5.10;;;;;;;;;;5035563;28;20481;-61
2021/09/18 02:05:15;;;;;;;9.50;4.37;;;;;;;;;;5035206;28;20934;-61
2021/09/18 02:07:42;;;;;;;5.30;4.33;;;;;;;;;;5035370;28;20540;-61
2021/09/18 02:10:12;;;;;;;9.23;4.50;;;;;;;;;;5035073;28;20869;-61
2021/09/18 02:12:39;;;;;;;5.53;4.70;;;;;;;;;;5035347;28;20872;-62
2021/09/18 02:15:09;;;;;;;6.47;4.47;;;;;;;;;;5034885;28;20532;-62
2021/09/18 02:17:36;;;;;;;5.63;5.03;;;;;;;;;;5035112;28;20884;-62
2021/09/18 02:20:04;;;;;;;4.67;4.27;;;;;;;;;;5034844;28;20512;-62
2021/09/18 02:22:31;;;;;;;10.43;4.80;;;;;;;;;;5035008;28;20444;-61
2021/09/18 02:24:58;;;;;;;7.43;5.03;;;;;;;;;;5034883;28;20453;-61
2021/09/18 02:27:26;;;;;;;7.70;5.50;;;;;;;;;;5035169;28;20470;-62
2021/09/18 02:29:53;;;;;;;6.60;5.70;;;;;;;;;;5035163;28;20522;-61
2021/09/18 02:32:22;;;;;;;7.43;5.30;;;;;;;;;;5035051;28;20860;-61
2021/09/18 02:34:49;;;;;;;6.30;5.70;;;;;;;;;;5035010;28;20538;-61
2021/09/18 02:37:16;;;;;;;5.60;5.07;;;;;;;;;;5034812;28;20221;-62
2021/09/18 02:39:44;;;;;;;5.63;5.10;;;;;;;;;;5034925;28;20462;-61
2021/09/18 02:42:11;;;;;;;7.23;5.20;;;;;;;;;;5035360;28;20447;-62
2021/09/18 02:44:38;;;;;;;5.27;4.77;;;;;;;;;;5034731;28;20444;-62
2021/09/18 02:47:05;;;;;;;4.70;4.30;;;;;;;;;;5033205;28;20857;-61
2021/09/18 02:49:34;;;;;;;5.10;4.70;;;;;;;;;;5034406;28;20446;-61
2021/09/18 02:52:01;;;;;;;8.53;4.87;;;;;;;;;;5034285;28;20726;-61
2021/09/18 02:54:28;;;;;;;5.90;5.30;;;;;;;;;;5034390;28;20475;-61
2021/09/18 02:56:56;;;;;;;5.00;4.40;;;;;;;;;;5034323;28;20509;-62
2021/09/18 02:59:23;;;;;;;5.37;4.87;;;;;;;;;;5034512;28;20907;-62
2021/09/18 03:01:50;;;;;;;5.00;4.50;;;;;;;;;;5034451;28;20449;-62
2021/09/18 03:04:17;;;;;;;5.70;5.20;;;;;;;;;;5035100;28;20446;-62
2021/09/18 03:06:46;;;;;;;5.57;4.68;;;;;;;;;;5034321;28;20449;-61
2021/09/18 03:09:13;;;;;;;6.77;4.47;;;;;;;;;;5034002;28;20228;-61
2021/09/18 03:11:40;;;;;;;4.90;4.50;;;;;;;;;;5034294;28;20454;-61
2021/09/18 03:14:08;;;;;;;6.30;4.93;;;;;;;;;;5034305;28;20225;-62
2021/09/18 03:16:35;;;;;;;9.77;6.20;;;;;;;;;;5033838;28;20450;-61
2021/09/18 03:19:02;;;;;;;6.17;5.57;;;;;;;;;;5033746;28;20715;-61
2021/09/18 03:21:29;;;;;;;6.65;5.55;;;;;;;;;;5033797;28;20948;-61
2021/09/18 03:23:58;;;;;;;5.65;5.10;;;;;;;;;;5034161;28;20196;-61
2021/09/18 03:26:25;;;;;;;5.47;4.97;;;;;;;;;;5034111;28;20199;-61
2021/09/18 03:28:52;;;;;;;5.90;5.40;;;;;;;;;;5034013;28;20228;-61
2021/09/18 03:31:20;;;;;;;7.25;6.10;;;;;;;;;;5033757;28;20676;-62
2021/09/18 03:33:47;;;;;;;7.00;5.88;;;;;;;;;;5034018;28;20211;-62
2021/09/18 03:36:14;;;;;;;5.73;5.20;;;;;;;;;;5033942;28;20212;-61
2021/09/18 03:38:42;;;;;;;6.35;5.43;;;;;;;;;;5033717;28;20886;-61
2021/09/18 03:41:10;;;;;;;12.83;5.83;;;;;;;;;;5033462;28;20619;-60
2021/09/18 03:43:38;;;;;;;6.07;5.50;;;;;;;;;;5033505;28;20448;-61
2021/09/18 03:46:05;;;;;;;5.95;5.40;;;;;;;;;;5033731;28;20230;-61
2021/09/18 03:48:32;;;;;;;6.30;5.70;;;;;;;;;;5033226;28;20279;-60
2021/09/18 03:50:59;;;;;;;6.53;5.53;;;;;;;;;;5033594;28;20447;-61
2021/09/18 03:53:26;;;;;;;5.90;5.30;;;;;;;;;;5033606;28;20867;-61
2021/09/18 03:55:54;;;;;;;7.17;6.13;;;;;;;;;;5033145;28;21064;-62
2021/09/18 03:58:22;;;;;;;6.65;6.05;;;;;;;;;;5032868;28;20483;-60
2021/09/18 04:00:49;;;;;;;7.50;5.73;;;;;;;;;;5033480;28;20209;-60
2021/09/18 04:03:17;;;;;;;7.33;5.73;;;;;;;;;;5034115;28;20503;-60
2021/09/18 04:08:37;;;;;;;6.57;5.50;;;;;;;;;;5091328;27;20756;-61
2021/09/18 04:11:04;;;;;;;6.40;5.33;;;;;;;;;;5090893;28;20448;-61
2021/09/18 04:13:31;;;;;;;7.57;5.53;;;;;;;;;;5090999;28;20518;-59
2021/09/18 04:15:59;;;;;;;5.83;5.23;;;;;;;;;;5090894;28;20517;-61
2021/09/18 04:18:26;;;;;;;6.53;5.53;;;;;;;;;;5091010;28;20467;-60
2021/09/18 04:20:53;;;;;;;7.03;5.70;;;;;;;;;;5090999;28;20448;-61
2021/09/18 04:23:20;;;;;;;8.93;6.03;;;;;;;;;;5091003;28;20505;-61
2021/09/18 04:25:49;;;;;;;7.03;6.33;;;;;;;;;;5090569;28;20449;-61
2021/09/18 04:28:16;;;;;;;6.70;6.10;;;;;;;;;;5090681;28;20490;-62
2021/09/18 04:30:44;;;;;;;8.70;6.63;;;;;;;;;;5090397;28;20454;-61
2021/09/18 04:33:11;;;;;;;9.60;6.40;;;;;;;;;;5090510;28;20448;-60
2021/09/18 04:35:38;;;;;;;8.10;7.40;;;;;;;;;;5090406;28;20448;-60
2021/09/18 04:38:05;;;;;;;10.27;7.97;;;;;;;;;;5090373;28;20468;-60
2021/09/18 04:40:33;;;;;;;7.37;6.77;;;;;;;;;;5090681;28;20456;-61
2021/09/18 04:43:01;;;;;;;10.13;6.83;;;;;;;;;;5090334;28;20862;-60
2021/09/18 04:45:29;;;;;;;6.87;6.27;;;;;;;;;;5090630;28;20499;-60
2021/09/18 04:47:56;;;;;;;7.70;6.70;;;;;;;;;;5090684;28;21070;-60
2021/09/18 04:50:23;;;;;;;7.10;6.40;;;;;;;;;;5097232;28;20449;-60
2021/09/18 04:52:50;;;;;;;7.30;6.60;;;;;;;;;;5101693;28;20439;-59
2021/09/18 04:55:18;;;;;;;8.20;6.90;;;;;;;;;;5097493;28;20455;-61
2021/09/18 04:57:45;;;;;;;8.13;6.43;;;;;;;;;;5095578;28;20460;-60
2021/09/18 05:00:14;;;;;;;6.90;6.17;;;;;;;;;;5087268;22;20568;-65
2021/09/18 05:02:41;;;;;;;7.10;6.40;;;;;;;;;;5049359;28;20453;-63
2021/09/18 05:05:09;;;;;;;7.10;6.30;;;;;;;;;;5049638;28;20491;-65
2021/09/18 05:07:36;;;;;;;7.10;6.30;;;;;;;;;;5049267;28;20478;-65
2021/09/18 05:10:04;;;;;;;8.20;7.17;;;;;;;;;;5049086;28;20471;-65
2021/09/18 05:12:31;;;;;;;7.17;6.57;;;;;;;;;;5049593;28;20516;-65
2021/09/18 05:14:58;;;;;;;7.30;6.30;;;;;;;;;;5049191;28;20450;-65
2021/09/18 05:17:27;;;;;;;6.73;6.10;;;;;;;;;;5049536;28;20440;-63
2021/09/18 05:19:54;;;;;;;7.17;6.47;;;;;;;;;;5037098;28;20533;-65
2021/09/18 05:22:21;;;;;;;7.00;6.30;;;;;;;;;;5036653;28;20451;-65
2021/09/18 05:24:49;;;;;;;11.90;6.70;;;;;;;;;;5035798;28;20476;-65
2021/09/18 05:27:16;;;;;;;8.27;7.53;;;;;;;;;;5035811;28;20527;-65
2021/09/18 05:29:44;;;;;;;8.73;7.60;;;;;;;;;;5035754;28;20880;-65
2021/09/18 05:32:11;;;;;;;7.80;7.10;;;;;;;;;;5035032;28;20449;-65
2021/09/18 05:34:40;;;;;;;6.70;6.20;;;;;;;;;;5035760;28;20445;-64
2021/09/18 05:37:07;;;;;;;6.40;5.80;;;;;;;;;;5035474;28;20452;-64
2021/09/18 05:39:35;;;;;;;8.37;7.50;;;;;;;;;;5035610;28;20500;-64
2021/09/18 05:42:02;;;;;;;9.43;8.43;;;;;;;;;;5035594;28;20495;-64
2021/09/18 05:44:29;;;;;;;8.50;7.17;;;;;;;;;;5035160;28;20445;-64
2021/09/18 05:46:56;;;;;;;7.47;6.77;;;;;;;;;;5035129;28;20552;-63
2021/09/18 05:49:24;;;;;;;8.13;7.23;;;;;;;;;;5035408;28;20519;-63
2021/09/18 05:51:52;;;;;;;7.93;7.17;;;;;;;;;;5035418;28;20451;-63
2021/09/18 05:54:19;;;;;;;7.57;6.87;;;;;;;;;;5035511;28;20454;-63
2021/09/18 05:56:47;;;;;;;11.20;6.70;;;;;;;;;;5035422;28;20449;-62
2021/09/18 05:59:14;;;;;;;8.03;7.20;;;;;;;;;;5035514;28;20491;-63
2021/09/18 06:01:41;;;;;;;7.70;7.00;;;;;;;;;;5034938;28;20426;-63
2021/09/18 06:04:08;;;;;;;7.70;6.90;;;;;;;;;;5035078;28;20512;-63
2021/09/18 06:06:35;;;;;;;7.60;6.80;;;;;;;;;;5034706;28;20879;-63
2021/09/18 06:09:04;;;;;;;8.10;6.57;;;;;;;;;;5034775;28;20494;-63
2021/09/18 06:11:31;;;;;;;7.03;6.40;;;;;;;;;;5034984;28;20823;-65
2021/09/18 06:13:59;;;;;;;7.00;6.40;;;;;;;;;;5035049;28;20511;-65
2021/09/18 06:16:26;;;;;;;7.03;6.43;;;;;;;;;;5034719;28;20445;-64
2021/09/18 06:18:53;;;;;;;8.80;7.10;;;;;;;;;;5034832;28;20448;-65
2021/09/18 06:21:21;;;;;;;6.90;6.30;;;;;;;;;;5034942;28;20437;-64
2021/09/18 06:23:48;;;;;;;6.80;6.20;;;;;;;;;;5034555;28;20454;-63
2021/09/18 06:26:17;;;;;;;7.20;6.60;;;;;;;;;;5035062;28;20508;-65
2021/09/18 06:28:44;;;;;;;7.30;6.53;;;;;;;;;;5034690;28;20520;-64
2021/09/18 06:31:11;;;;;;;7.30;6.70;;;;;;;;;;5034607;28;20524;-65
2021/09/18 06:33:39;;;;;;;6.70;6.03;;;;;;;;;;5034484;28;21007;-63
2021/09/18 06:36:06;;;;;;;8.63;7.23;;;;;;;;;;5034430;28;20933;-63
2021/09/18 06:38:34;;;;;;;8.80;6.70;;;;;;;;;;5034450;28;20510;-62
2021/09/18 06:41:01;;;;;;;8.50;6.47;;;;;;;;;;5034318;28;20465;-63
2021/09/18 06:43:29;;;;;;;6.90;6.03;;;;;;;;;;5034416;28;20451;-63
2021/09/18 06:45:57;;;;;;;9.13;7.47;;;;;;;;;;5034311;28;20440;-63
2021/09/18 06:48:24;;;;;;;7.53;6.83;;;;;;;;;;5034284;28;20919;-63
2021/09/18 06:50:52;;;;;;;7.00;6.47;;;;;;;;;;5033860;28;20463;-65
2021/09/18 06:53:19;;;;;;;8.10;7.40;;;;;;;;;;5034278;28;20445;-64
2021/09/18 06:55:46;;;;;;;7.00;6.30;;;;;;;;;;5033881;28;20870;-63
2021/09/18 06:58:14;;;;;;;7.00;6.33;;;;;;;;;;5034226;28;20438;-63
2021/09/18 07:00:42;;;;;;;9.80;6.93;;;;;;;;;;5033748;28;20479;-64
2021/09/18 07:03:09;;;;;;;6.47;5.97;;;;;;;;;;5033819;28;20445;-64
2021/09/18 07:05:37;;;;;;;7.00;6.30;;;;;;;;;;5034382;28;20519;-65
2021/09/18 07:08:04;;;;;;;6.60;6.00;;;;;;;;;;5033638;28;20483;-64
2021/09/18 07:10:31;;;;;;;7.40;6.67;;;;;;;;;;5033928;28;20467;-64
2021/09/18 07:12:59;;;;;;;7.40;6.70;;;;;;;;;;5033911;28;20452;-64
2021/09/18 07:15:26;;;;;;;6.90;6.20;;;;;;;;;;5033848;28;20544;-65
2021/09/18 07:17:55;;;;;;;7.37;6.67;;;;;;;;;;5033755;28;20502;-65
2021/09/18 07:20:22;;;;;;;7.07;6.47;;;;;;;;;;5033980;28;20881;-65
2021/09/18 07:22:50;;;;;;;6.70;6.03;;;;;;;;;;5033773;28;20441;-65
2021/09/18 07:25:17;;;;;;;8.40;6.70;;;;;;;;;;5033755;28;20457;-65
2021/09/18 07:27:44;;;;;;;8.67;7.43;;;;;;;;;;5033619;28;20484;-65
2021/09/18 07:30:12;;;;;;;6.50;5.90;;;;;;;;;;5033247;28;20987;-64
2021/09/18 07:32:39;;;;;;;6.73;6.20;;;;;;;;;;5033117;28;20860;-65
2021/09/18 07:35:08;;;;;;;6.10;5.50;;;;;;;;;;5033691;28;20455;-64
2021/09/18 07:37:36;;;;;;;7.60;6.87;;;;;;;;;;5033335;28;20863;-65
2021/09/18 07:40:04;;;;;;;12.10;7.03;;;;;;;;;;5033559;28;20539;-65
2021/09/18 07:42:31;;;;;;;6.70;5.90;;;;;;;;;;5033141;28;20452;-65
2021/09/18 07:44:58;;;;;;;15.40;6.30;;;;;;;;;;5032899;28;21008;-65
2021/09/18 07:47:26;;;;;;;7.30;6.70;;;;;;;;;;5033250;28;20437;-65
2021/09/18 07:49:53;;;;;;;7.83;7.03;;;;;;;;;;5033251;28;20476;-64
2021/09/18 07:52:22;;;;;;;10.00;6.50;;;;;;;;;;5032819;28;20449;-65
2021/09/18 07:54:49;;;;;;;7.83;6.30;;;;;;;;;;5033150;28;20496;-65
2021/09/18 07:57:16;;;;;;;8.83;6.50;;;;;;;;;;5033190;28;20503;-64
2021/09/18 07:59:43;;;;;;;7.70;6.23;;;;;;;;;;5032686;28;20545;-64
2021/09/18 08:02:11;;;;;;;6.60;6.00;;;;;;;;;;5032785;28;20944;-64
2021/09/18 08:04:38;;;;;;;6.90;6.20;;;;;;;;;;5033133;28;20448;-64
2021/09/18 08:07:05;;;;;;;7.00;6.30;;;;;;;;;;5032904;28;20933;-64
2021/09/18 08:09:34;;;;;;;7.07;6.37;;;;;;;;;;5032905;28;20534;-64
2021/09/18 08:12:01;;;;;;;7.90;7.10;;;;;;;;;;5032905;28;20456;-64
2021/09/18 08:14:28;;;;;;;7.00;6.10;;;;;;;;;;5032904;28;20448;-64
2021/09/18 08:16:56;;;;;;;7.50;6.80;;;;;;;;;;5032743;28;20496;-64
2021/09/18 08:19:24;;;;;;;8.40;6.30;;;;;;;;;;5032907;28;20564;-64
2021/09/18 08:21:52;;;;;;;7.70;6.20;;;;;;;;;;5032693;28;20886;-64
2021/09/18 08:24:19;;;;;;;7.20;6.50;;;;;;;;;;5032859;28;20462;-64
2021/09/18 08:26:48;;;;;;;10.87;6.80;;;;;;;;;;5032807;28;20784;-64
2021/09/18 08:29:15;;;;;;;7.47;6.77;;;;;;;;;;5032499;28;20481;-64
2021/09/18 08:31:43;;;;;;;6.53;5.93;;;;;;;;;;5032811;28;20508;-64
2021/09/18 08:34:10;;;;;;;6.60;6.00;;;;;;;;;;5032789;28;20503;-64
2021/09/18 08:36:37;;;;;;;6.77;6.03;;;;;;;;;;5032537;28;20886;-64
2021/09/18 08:39:05;;;;;;;8.23;6.80;;;;;;;;;;5032764;28;20489;-64
2021/09/18 08:41:32;;;;;;;7.90;7.10;;;;;;;;;;5032832;28;20445;-64
2021/09/18 08:44:01;;;;;;;6.97;6.37;;;;;;;;;;5033148;28;20442;-64
2021/09/18 08:46:30;;;;;;;8.40;7.60;;;;;;;;;;5032805;28;20445;-64
2021/09/18 08:48:58;;;;;;;10.00;8.07;;;;;;;;;;5032744;28;20489;-65
2021/09/18 08:51:26;;;;;;;10.33;7.50;;;;;;;;;;5032594;28;20540;-64
2021/09/18 08:53:53;;;;;;;9.60;8.20;;;;;;;;;;5033681;28;20457;-65
2021/09/18 08:56:21;;;;;;;9.67;7.37;;;;;;;;;;5035648;28;20449;-65
2021/09/18 08:58:49;;;;;;;9.27;8.37;;;;;;;;;;5035669;28;20499;-65
2021/09/18 09:01:19;;;;;;;8.50;7.50;;;;;;;;;;5036148;28;20430;-64
2021/09/18 09:03:56;;;;;;;9.37;7.83;;;;;;;;;;5036641;28;20487;-64
2021/09/18 09:06:25;;;;;;;9.70;8.03;;;;;;;;;;5035629;28;20450;-64
2021/09/18 09:08:56;;;;;;;8.93;7.60;;;;;;;;;;5036110;28;20512;-65
2021/09/18 09:11:25;;;;;;;9.77;8.47;;;;;;;;;;5036068;28;20438;-65
2021/09/18 09:14:02;;;;;;;10.47;8.07;;;;;;;;;;5036041;28;20451;-65
2021/09/18 09:16:32;;;;;;;8.53;7.63;;;;;;;;;;5035807;28;20441;-65
2021/09/18 09:19:00;;;;;;;8.57;7.60;;;;;;;;;;5035562;28;20937;-65
2021/09/18 09:21:28;;;;;;;9.50;7.00;;;;;;;;;;5035551;28;20445;-65
2021/09/18 09:24:06;;;;;;;8.77;7.87;;;;;;;;;;5035883;28;20454;-65
2021/09/18 09:26:33;;;;;;;7.97;7.17;;;;;;;;;;5035840;28;20451;-65
2021/09/18 09:29:01;;;;;;;17.33;7.67;;;;;;;;;;5035605;28;20494;-65
2021/09/18 09:31:29;;;;;;;10.53;7.13;;;;;;;;;;5035711;28;20441;-65
2021/09/18 09:34:02;;;;;;;8.37;7.37;;;;;;;;;;5035209;28;20453;-64
2021/09/18 09:36:30;;;;;;;7.73;6.97;;;;;;;;;;5035263;28;20453;-63
2021/09/18 09:38:58;;;;;;;7.20;6.50;;;;;;;;;;5035253;28;20809;-66
2021/09/18 09:41:31;;;;;;;8.47;6.77;;;;;;;;;;5035489;28;20446;-65
2021/09/18 09:43:59;;;;;;;12.57;7.33;;;;;;;;;;5035031;28;20549;-67
2021/09/18 09:46:26;;;;;;;6.30;5.60;;;;;;;;;;5035335;28;20459;-66
2021/09/18 09:49:05;;;;;;;6.50;5.80;;;;;;;;;;5034696;28;20474;-64
2021/09/18 09:51:32;;;;;;;6.73;6.03;;;;;;;;;;5035273;28;20912;-64
2021/09/18 09:54:18;;;;;;;7.70;6.10;;;;;;;;;;5035474;28;20456;-64
2021/09/18 09:56:45;;;;;;;7.07;5.40;;;;;;;;;;5035801;28;20938;-64
2021/09/18 09:59:12;;;;;;;5.87;5.23;;;;;;;;;;5035255;28;20900;-64
2021/09/18 10:01:39;;;;;;;6.47;5.80;;;;;;;;;;5035627;28;20432;-64
2021/09/18 10:04:08;;;;;;;5.90;5.20;;;;;;;;;;5035556;28;20448;-65
2021/09/18 10:06:36;;;;;;;5.57;5.07;;;;;;;;;;5035300;28;20455;-66
2021/09/18 10:09:03;;;;;;;7.40;5.77;;;;;;;;;;5035949;28;20490;-69
2021/09/18 10:11:34;;;;;;;5.00;4.50;;;;;;;;;;5035691;28;20506;-67
2021/09/18 10:14:03;;;;;;;5.27;4.77;;;;;;;;;;5035428;28;20582;-68
2021/09/18 10:16:31;;;;;;;4.70;4.27;;;;;;;;;;5035013;28;20539;-64
2021/09/18 10:19:02;;;;;;;6.40;5.17;;;;;;;;;;5034549;28;20975;-64
2021/09/18 10:24:16;;;;;;;5.90;5.17;;;;;;;;;;5034691;28;20404;-63
2021/09/18 10:26:43;;;;;;;5.50;4.40;;;;;;;;;;5034659;28;20455;-62
2021/09/18 10:29:10;;;;;;;5.80;5.30;;;;;;;;;;5034937;28;20545;-62
2021/09/18 10:31:38;;;;;;;5.73;4.57;;;;;;;;;;5034406;28;20865;-62
2021/09/18 10:34:21;;;;;;;7.30;6.60;;;;;;;;;;5034552;28;20865;-62
2021/09/18 10:36:50;;;;;;;6.50;5.90;;;;;;;;;;5034074;28;20430;-62
2021/09/18 10:39:19;;;;;;;6.80;6.20;;;;;;;;;;5034089;28;20459;-63
2021/09/18 10:41:47;;;;;;;7.07;6.20;;;;;;;;;;5034298;28;20544;-63
2021/09/18 10:44:16;;;;;;;7.70;6.97;;;;;;;;;;5034055;28;20499;-63
2021/09/18 10:46:45;;;;;;;7.80;7.10;;;;;;;;;;5033901;28;20933;-63
2021/09/18 10:49:35;;;;;;;6.90;6.30;;;;;;;;;;5033635;28;20910;-63
2021/09/18 10:52:17;;;;;;;7.97;7.27;;;;;;;;;;5033967;28;20490;-63
2021/09/18 10:54:59;;;;;;;8.57;7.00;;;;;;;;;;5033401;28;20433;-62
2021/09/18 10:57:28;;;;;;;6.80;6.20;;;;;;;;;;5033720;28;20529;-62
2021/09/18 10:59:55;;;;;;;9.23;6.53;;;;;;;;;;5034755;28;20485;-62
2021/09/18 11:02:48;;;;;;;6.53;5.93;;;;;;;;;;5033518;28;20452;-61
2021/09/18 11:05:48;;;;;;;7.13;6.43;;;;;;;;;;5033925;28;20434;-62
2021/09/18 11:08:36;;;;;;;7.27;6.40;;;;;;;;;;4972459;28;20432;-63
2021/09/18 11:11:05;;;;;;;7.30;6.40;;;;;;;;;;4970060;28;20522;-63
2021/09/18 11:13:35;;;;;;;6.03;5.50;;;;;;;;;;5009522;28;20452;-61
2021/09/18 11:16:04;;;;;;;6.80;5.80;;;;;;;;;;5034172;28;20420;-62
2021/09/18 11:18:33;;;;;;;5.73;5.23;;;;;;;;;;5033005;28;20453;-62
2021/09/18 11:21:13;;;;;;;6.03;5.50;;;;;;;;;;5033345;28;20496;-63
2021/09/18 11:23:41;;;;;;;5.57;5.07;;;;;;;;;;5033506;28;20420;-63
2021/09/18 11:26:27;;;;;;;5.70;5.20;;;;;;;;;;5033671;28;20437;-63
2021/09/18 11:28:55;;;;;;;6.17;5.30;;;;;;;;;;5032994;28;20473;-63
2021/09/18 11:31:23;;;;;;;5.17;4.67;;;;;;;;;;5032951;28;20446;-62
2021/09/18 11:33:50;;;;;;;5.30;4.80;;;;;;;;;;5033106;28;20452;-63
2021/09/18 11:36:19;;;;;;;4.97;4.47;;;;;;;;;;5033692;28;20446;-62
2021/09/18 11:38:47;;;;;;;5.03;4.60;;;;;;;;;;5032976;28;20817;-63
2021/09/18 11:41:15;;;;;;;6.00;5.00;;;;;;;;;;5033155;28;20445;-63
2021/09/18 11:43:44;;;;;;;5.10;4.60;;;;;;;;;;5032769;28;20495;-63
2021/09/18 11:46:23;;;;;;;4.70;4.30;;;;;;;;;;5033499;28;20511;-62
2021/09/18 11:48:57;;;;;;;5.07;4.67;;;;;;;;;;5033085;28;20564;-62
2021/09/18 11:51:24;;;;;;;5.30;4.80;;;;;;;;;;5033638;28;20479;-62
2021/09/18 11:53:59;;;;;;;5.87;4.70;;;;;;;;;;5033418;28;20527;-60
2021/09/18 11:56:26;;;;;;;5.10;4.60;;;;;;;;;;5033490;28;20427;-62
2021/09/18 11:58:54;;;;;;;5.77;4.60;;;;;;;;;;5033119;28;20453;-62
2021/09/18 12:01:22;;;;;;;4.10;3.70;;;;;;;;;;5032845;28;20939;-63
2021/09/18 12:03:50;;;;;;;4.57;4.17;;;;;;;;;;5033143;28;20449;-63
2021/09/18 12:06:18;;;;;;;4.70;4.30;;;;;;;;;;5032816;28;20940;-63
2021/09/18 12:08:49;;;;;;;4.80;4.30;;;;;;;;;;5032734;28;20441;-62
2021/09/18 12:11:18;;;;;;;5.23;4.73;;;;;;;;;;5032983;28;20488;-62
2021/09/18 12:13:46;;;;;;;4.70;4.30;;;;;;;;;;5032873;28;20455;-61
2021/09/18 12:16:13;;;;;;;3.90;3.60;;;;;;;;;;5032721;28;20455;-64
2021/09/18 12:18:43;;;;;;;3.30;3.00;;;;;;;;;;5032483;28;20839;-61
2021/09/18 12:21:11;;;;;;;3.20;2.90;;;;;;;;;;5033430;28;20462;-63
2021/09/18 12:23:41;;;;;;;3.03;2.80;;;;;;;;;;5032987;28;20503;-63
2021/09/18 12:26:08;;;;;;;3.03;2.73;;;;;;;;;;5032533;28;20495;-63
2021/09/18 12:28:36;;;;;;;3.10;2.70;;;;;;;;;;5033899;28;20859;-63
2021/09/18 12:31:14;;;;;;;2.90;2.70;;;;;;;;;;5036431;28;20561;-63
2021/09/18 12:33:43;;;;;;;4.10;3.10;;;;;;;;;;5036709;28;20495;-63
2021/09/18 12:36:11;;;;;;;5.67;3.20;;;;;;;;;;5036519;28;20945;-62
2021/09/18 12:38:39;;;;;;;4.43;3.90;;;;;;;;;;5036382;28;20451;-62
2021/09/18 12:41:07;;;;;;;8.33;3.57;;;;;;;;;;5036578;28;20440;-62
2021/09/18 12:43:34;;;;;;;3.50;3.20;;;;;;;;;;5035909;28;20449;-62
2021/09/18 12:46:06;;;;;;;3.90;3.50;;;;;;;;;;5036739;28;20516;-62
2021/09/18 12:48:33;;;;;;;4.20;3.80;;;;;;;;;;5036376;28;20503;-62
2021/09/18 12:51:09;;;;;;;3.67;3.30;;;;;;;;;;5036118;28;20488;-62
2021/09/18 12:53:43;;;;;;;4.57;3.90;;;;;;;;;;5036048;28;20437;-62
2021/09/18 12:56:24;;;;;;;3.93;3.63;;;;;;;;;;5036104;28;20444;-62
2021/09/18 12:58:53;;;;;;;3.97;3.67;;;;;;;;;;5035983;28;20453;-62
2021/09/18 13:01:20;;;;;;;4.10;3.70;;;;;;;;;;5036271;28;20429;-62
2021/09/18 13:04:00;;;;;;;3.83;3.53;;;;;;;;;;5035904;28;20789;-62
2021/09/18 13:06:28;;;;;;;5.43;3.93;;;;;;;;;;5035754;28;20939;-62
2021/09/18 13:08:58;;;;;;;4.20;3.60;;;;;;;;;;5035532;28;21008;-61
2021/09/18 13:11:26;;;;;;;4.17;3.87;;;;;;;;;;5035931;28;20478;-64
2021/09/18 13:13:54;;;;;;;3.97;3.67;;;;;;;;;;5035469;28;20461;-63
2021/09/18 13:16:22;;;;;;;4.30;3.90;;;;;;;;;;5035728;28;20449;-62
2021/09/18 13:19:03;;;;;;;3.87;3.57;;;;;;;;;;5036394;28;20499;-63
2021/09/18 13:21:31;;;;;;;3.80;3.50;;;;;;;;;;5053638;28;20448;-62
2021/09/18 13:23:59;;;;;;;3.87;3.57;;;;;;;;;;5057138;28;20441;-63
2021/09/18 13:26:26;;;;;;;3.57;3.27;;;;;;;;;;5056213;28;20445;-63
2021/09/18 13:28:53;;;;;;;3.20;2.90;;;;;;;;;;5053926;28;20449;-64
2021/09/18 13:31:20;;;;;;;2.53;2.30;;;;;;;;;;5046958;28;20906;-63
2021/09/18 13:33:47;;;;;;;2.30;2.10;;;;;;;;;;5037589;28;20932;-62
2021/09/18 13:36:15;;;;;;;2.50;2.03;;;;;;;;;;5036748;28;20441;-62
2021/09/18 13:38:43;;;;;;;2.17;1.93;;;;;;;;;;5035953;28;20515;-64
2021/09/18 13:41:11;;;;;;;2.50;2.07;;;;;;;;;;5035525;28;20441;-62
2021/09/18 13:43:38;;;;;;;2.10;1.80;;;;;;;;;;5035588;28;20446;-62
2021/09/18 13:46:05;;;;;;;2.53;1.90;;;;;;;;;;5035507;28;20445;-62
2021/09/18 13:48:32;;;;;;;2.67;2.47;;;;;;;;;;5035554;28;20515;-62
2021/09/18 13:51:01;;;;;;;4.73;2.53;;;;;;;;;;5035699;28;20500;-61
2021/09/18 13:53:29;;;;;;;3.60;2.60;;;;;;;;;;5035775;28;20453;-62
2021/09/18 13:55:57;;;;;;;1.87;1.77;;;;;;;;;;5037095;28;20499;-62
2021/09/18 13:58:25;;;;;;;2.57;2.33;;;;;;;;;;5035742;28;20457;-62
2021/09/18 14:00:54;;;;;;;1.73;1.63;;;;;;;;;;5035238;28;20890;-62
2021/09/18 14:03:21;;;;;;;2.30;2.10;;;;;;;;;;5035089;28;20460;-62
2021/09/18 14:05:48;;;;;;;2.40;1.97;;;;;;;;;;5035391;28;20898;-62
2021/09/18 14:08:16;;;;;;;2.30;2.07;;;;;;;;;;5034855;28;20449;-63
2021/09/18 14:10:43;;;;;;;3.30;2.20;;;;;;;;;;5034820;28;20485;-62
2021/09/18 14:13:12;;;;;;;2.40;2.20;;;;;;;;;;5035082;28;20793;-62
2021/09/18 14:15:39;;;;;;;2.10;1.90;;;;;;;;;;5035144;28;20441;-62
2021/09/18 14:18:07;;;;;;;2.63;2.43;;;;;;;;;;5035012;28;20449;-62
2021/09/18 14:20:35;;;;;;;2.77;2.37;;;;;;;;;;5035109;28;20507;-62
2021/09/18 14:23:02;;;;;;;2.63;2.43;;;;;;;;;;5034897;28;20441;-61
2021/09/18 14:25:29;;;;;;;2.67;2.37;;;;;;;;;;5034544;28;20995;-62
2021/09/18 14:27:57;;;;;;;4.13;2.47;;;;;;;;;;5034469;28;20445;-61
2021/09/18 14:30:26;;;;;;;2.90;2.60;;;;;;;;;;5034558;28;20480;-62
2021/09/18 14:32:53;;;;;;;2.47;2.27;;;;;;;;;;5034694;28;20445;-64
2021/09/18 14:35:20;;;;;;;2.90;2.13;;;;;;;;;;5034515;28;20449;-62
2021/09/18 14:37:47;;;;;;;2.37;2.03;;;;;;;;;;5034492;28;20511;-62
2021/09/18 14:40:15;;;;;;;3.63;2.90;;;;;;;;;;5034271;28;20981;-63
2021/09/18 14:42:42;;;;;;;2.13;1.93;;;;;;;;;;5034619;28;20445;-63
2021/09/18 14:45:10;;;;;;;1.87;1.63;;;;;;;;;;5034451;28;20452;-62
2021/09/18 14:47:39;;;;;;;4.80;1.70;;;;;;;;;;5034397;28;20553;-63
2021/09/18 14:50:07;;;;;;;3.10;1.97;;;;;;;;;;5034513;28;20484;-63
2021/09/18 14:52:34;;;;;;;1.53;1.43;;;;;;;;;;5033370;28;20445;-63
2021/09/18 14:55:02;;;;;;;4.20;2.03;;;;;;;;;;5034177;28;20449;-63
2021/09/18 14:57:29;;;;;;;1.80;1.47;;;;;;;;;;5033603;28;20543;-63